Latest Weather Observations for Port Hedland

IDW60801

Issued at 1:02 pm WST Wednesday 25 May 2016 (issued every 30 minutes, with the page automatically refreshed every 10 minutes)

About weather observations | Map of weather stations | Latest weather observations for WA | Other Formats
Station Details ID: 004032 Name: PORT HEDLAND AIRPORT Lat: -20.37 Lon: 118.63 Height: 6.4 m
Data from the previous 72 hours. | See also: Recent months at Port Hedland
Date/Time
WST
Temp
°C
App
Temp
°C
Dew
Point
Rel
Hum
%
Delta-T
°C
Wind Press
QNH
hPa
Press
MSL
hPa
Rain
since 9 am
mm
Dir
 
Spd
km/h
Gust
km/h
Spd
kts
Gust
kts
25/12:30pm 29.5 28.8 18.6 52 7.0 NW 20 24 11 13 1012.6 - 0.0
25/12:00pm 29.4 28.3 18.7 52 6.9 NW 22 33 12 18 1013.0 1013.0 0.0
25/11:30am 30.0 29.6 18.9 51 7.2 NW 19 24 10 13 1013.4 - 0.0
25/11:00am 29.6 30.0 17.2 47 7.8 W 11 20 6 11 1013.7 - 0.0
25/10:30am 29.2 29.1 17.9 50 7.2 W 15 22 8 12 1014.0 - 0.0
25/10:00am 28.0 28.0 18.1 55 6.3 WNW 15 28 8 15 1014.4 - 0.0
25/09:30am 26.8 27.6 19.0 62 5.0 W 13 20 7 11 1014.6 - 0.0
25/09:00am 26.1 26.5 19.9 68 4.0 WSW 17 20 9 11 1014.5 1014.5 0.0
25/08:30am 24.7 25.9 20.6 78 2.7 WSW 15 17 8 9 1014.6 - 0.0
25/08:00am 22.9 25.3 20.9 88 1.3 SW 9 11 5 6 1014.5 - 0.0
25/07:30am 21.8 25.7 20.4 92 0.9 CALM 0 0 0 0 1014.2 - 0.0
25/07:00am 19.7 23.0 19.1 96 0.4 CALM 0 0 0 0 1013.9 - 0.0
25/06:30am 19.0 22.1 18.7 98 0.2 CALM 0 0 0 0 1013.5 - 0.0
25/06:00am 18.8 21.8 18.5 98 0.2 CALM 0 0 0 0 1013.3 1013.3 0.0
25/05:30am 19.2 21.0 18.7 97 0.3 S 7 7 4 4 1013.0 - 0.0
25/05:00am 19.6 21.8 19.3 98 0.2 S 6 7 3 4 1012.7 - 0.0
25/04:30am 20.2 22.4 19.7 97 0.3 SSW 7 9 4 5 1012.6 - 0.0
25/04:00am 20.5 22.5 20.0 97 0.3 SSW 9 9 5 5 1012.5 - 0.0
25/03:30am 20.0 21.9 19.7 98 0.2 SW 9 9 5 5 1012.5 - 0.0
25/03:24am 19.7 21.8 19.4 98 0.2 SW 7 9 4 5 1012.6 - 0.0
25/03:00am 19.7 21.7 19.2 97 0.3 WSW 7 9 4 5 1012.6 1012.6 0.0
25/02:55am 19.9 22.1 19.6 98 0.2 WSW 7 9 4 5 1012.7 - 0.0
25/02:30am 20.2 22.2 19.9 98 0.2 SW 9 9 5 5 1012.8 - 0.0
25/02:00am 20.3 22.2 19.8 97 0.3 SW 9 11 5 6 1013.0 - 0.0
25/01:30am 21.0 23.7 20.7 98 0.2 SSW 7 9 4 5 1013.2 - 0.0
25/01:00am 20.8 23.4 20.5 98 0.2 SSW 7 7 4 4 1013.4 - 0.0
25/12:30am 21.1 23.8 20.6 97 0.3 WSW 7 9 4 5 1013.4 - 0.0
25/12:00am 21.8 25.0 21.3 97 0.3 WSW 6 7 3 4 1013.4 1013.4 0.0
 
Date/Time
WST
Temp
°C
App
Temp
°C
Dew
Point
Rel
Hum
%
Delta-T
°C
Wind Press
QNH
hPa
Press
MSL
hPa
Rain
since 9 am
mm
Dir
 
Spd
km/h
Gust
km/h
Spd
kts
Gust
kts
24/11:30pm 21.8 24.7 21.0 95 0.5 W 7 7 4 4 1013.6 - 0.0
24/11:00pm 22.0 25.1 21.1 95 0.6 W 6 7 3 4 1013.7 - 0.0
24/10:30pm 22.1 25.1 21.3 95 0.5 W 7 9 4 5 1014.0 - 0.0
24/10:00pm 22.4 25.2 21.5 95 0.6 W 9 11 5 6 1014.2 - 0.0
24/09:30pm 22.7 24.7 21.6 93 0.7 W 13 15 7 8 1014.2 - 0.0
24/09:00pm 22.2 24.2 20.7 91 1.0 WNW 11 11 6 6 1014.3 1014.3 0.0
24/08:30pm 22.6 24.7 20.9 90 1.1 NW 11 13 6 7 1014.3 - 0.0
24/08:00pm 23.1 25.8 21.3 90 1.2 NW 9 11 5 6 1014.1 - 0.0
24/07:30pm 23.7 26.0 21.4 87 1.5 NNW 11 13 6 7 1013.9 - 0.0
24/07:00pm 24.0 26.4 21.6 86 1.6 NW 11 11 6 6 1013.8 - 0.0
24/06:30pm 24.6 26.7 21.7 84 1.9 NNW 13 17 7 9 1013.5 - 0.0
24/06:00pm 25.1 26.6 21.3 79 2.5 NNW 15 17 8 9 1013.1 1013.1 0.0
24/05:30pm 25.9 26.4 20.9 74 3.3 NNW 19 20 10 11 1012.9 - 0.0
24/05:00pm 26.8 27.3 21.2 71 3.7 N 20 24 11 13 1012.7 - 0.0
24/04:30pm 27.6 27.6 20.1 63 4.9 NNW 20 24 11 13 1012.6 - 0.0
24/04:00pm 28.0 28.0 20.1 62 5.2 NNW 20 26 11 14 1012.6 - 0.0
24/03:30pm 28.2 28.2 20.1 61 5.3 N 20 26 11 14 1012.5 - 0.0
24/03:00pm 28.3 27.6 19.5 59 5.7 N 22 28 12 15 1012.4 1012.4 0.0
24/02:30pm 28.7 28.3 20.2 60 5.6 NNW 22 28 12 15 1012.5 - 0.0
24/02:00pm 29.3 29.2 20.0 57 6.1 N 20 26 11 14 1012.7 - 0.0
24/01:30pm 29.6 29.9 19.7 55 6.5 N 17 24 9 13 1013.1 - 0.0
24/01:00pm 29.1 29.1 18.9 54 6.6 N 17 24 9 13 1013.4 - 0.0
24/12:30pm 29.5 29.6 19.9 56 6.3 NNE 19 22 10 12 1013.8 - 0.0
24/12:00pm 28.2 28.3 19.9 60 5.4 NNE 19 22 10 12 1014.2 1014.2 0.0
24/11:30am 28.2 29.7 20.5 63 5.1 NNE 13 19 7 10 1014.8 - 0.0
24/11:00am 27.9 28.3 19.8 61 5.3 NNE 17 20 9 11 1015.2 - 0.0
24/10:30am 28.2 28.6 19.1 57 5.9 ENE 15 20 8 11 1015.4 - 0.0
24/10:00am 27.5 27.1 18.8 59 5.6 NE 19 22 10 12 1015.7 - 0.0
24/09:30am 27.3 26.6 18.2 57 5.8 ENE 19 22 10 12 1015.8 - 0.0
24/09:00am 26.3 25.6 17.3 57 5.6 E 17 24 9 13 1015.8 1015.8 0.0
24/08:30am 25.3 24.1 17.1 60 5.1 E 19 22 10 12 1015.7 - 0.0
24/08:00am 23.6 22.0 16.6 65 4.3 E 20 24 11 13 1015.4 - 0.0
24/07:30am 21.9 20.9 16.6 72 3.2 ESE 17 24 9 13 1015.1 - 0.0
24/07:00am 20.4 20.2 16.6 79 2.3 SE 13 17 7 9 1015.0 - 0.0
24/06:30am 20.1 20.2 16.6 80 2.1 SE 11 15 6 8 1014.8 - 0.0
24/06:00am 20.2 20.4 16.7 80 2.1 ESE 11 15 6 8 1014.6 1014.6 0.0
24/05:30am 20.1 20.1 17.1 83 1.8 ESE 13 17 7 9 1014.4 - 0.0
24/05:00am 20.6 20.9 17.8 84 1.7 ESE 13 17 7 9 1014.2 - 0.0
24/04:30am 20.9 21.4 18.3 85 1.6 SE 13 15 7 8 1014.3 - 0.0
24/04:00am 20.4 21.8 18.6 89 1.1 SE 9 11 5 6 1014.2 - 0.0
24/03:30am 21.0 22.5 18.9 88 1.3 SE 9 13 5 7 1014.1 - 0.0
24/03:00am 21.5 23.1 19.1 86 1.5 SE 9 11 5 6 1014.1 1014.1 0.0
24/02:30am 21.3 22.5 19.1 87 1.4 E 11 13 6 7 1014.0 - 0.0
24/02:00am 21.9 23.4 19.7 87 1.4 ESE 11 13 6 7 1014.1 - 0.0
24/01:30am 21.6 23.0 19.6 88 1.3 E 11 15 6 8 1014.4 - 0.0
24/01:00am 22.2 24.2 20.0 87 1.4 SE 9 13 5 7 1014.6 - 0.0
24/12:30am 21.7 23.7 20.0 90 1.1 E 9 9 5 5 1014.6 - 0.0
24/12:00am 21.7 23.7 20.0 90 1.1 E 9 11 5 6 1014.7 1014.7 0.0
 
Date/Time
WST
Temp
°C
App
Temp
°C
Dew
Point
Rel
Hum
%
Delta-T
°C
Wind Press
QNH
hPa
Press
MSL
hPa
Rain
since 9 am
mm
Dir
 
Spd
km/h
Gust
km/h
Spd
kts
Gust
kts
23/11:30pm 21.9 23.9 20.0 89 1.2 ENE 9 11 5 6 1014.7 - 0.0
23/11:00pm 22.9 25.3 20.9 88 1.3 E 9 11 5 6 1015.0 - 0.0
23/10:30pm 22.8 25.6 20.8 88 1.3 ENE 7 7 4 4 1015.1 - 0.0
23/10:00pm 23.1 25.8 20.6 86 1.6 ENE 7 9 4 5 1015.3 - 0.0
23/09:30pm 24.3 27.3 21.9 86 1.6 NE 9 11 5 6 1015.4 - 0.0
23/09:00pm 24.7 27.0 22.0 85 1.8 NE 13 15 7 8 1015.1 1015.1 0.0
23/08:30pm 24.9 26.6 21.7 82 2.1 NE 15 19 8 10 1015.1 - 0.0
23/08:00pm 24.9 26.8 21.3 80 2.4 NNE 13 17 7 9 1015.0 - 0.0
23/07:30pm 25.1 26.8 21.0 78 2.7 NNE 13 17 7 9 1014.7 - 0.0
23/07:00pm 25.3 25.9 21.0 77 2.8 N 19 22 10 12 1014.4 - 0.0
23/06:30pm 25.4 25.7 20.7 75 3.1 N 20 24 11 13 1014.1 - 0.0
23/06:00pm 25.5 25.8 20.4 73 3.3 N 19 22 10 12 1013.8 1013.8 0.0
23/05:30pm 25.9 25.9 20.1 70 3.8 N 20 26 11 14 1013.6 - 0.0
23/05:00pm 26.6 26.2 19.3 64 4.7 N 20 24 11 13 1013.8 - 0.0
23/04:30pm 27.1 25.7 18.8 60 5.3 N 24 30 13 16 1013.7 - 0.0
23/04:00pm 28.1 26.6 17.8 53 6.5 N 22 28 12 15 1013.4 - 0.0
23/03:30pm 28.4 26.6 17.8 52 6.7 N 24 26 13 14 1013.3 - 0.0
23/03:00pm 29.6 27.1 16.1 44 8.4 NNE 24 28 13 15 1013.3 1013.3 0.0
23/02:30pm 29.1 25.9 15.4 43 8.4 N 26 30 14 16 1013.3 - 0.0
23/02:00pm 31.3 27.1 11.1 29 11.7 NNE 24 30 13 16 1013.4 - 0.0
23/01:30pm 32.3 28.5 9.0 23 13.1 E 19 32 10 17 1013.7 - 0.0
23/01:00pm 31.9 27.9 8.9 24 12.9 ENE 20 28 11 15 1014.4 - 0.0
23/12:30pm 30.8 28.0 8.6 25 12.3 ESE 13 22 7 12 1015.1 - 0.0
23/12:00pm 30.7 27.0 7.9 24 12.5 ESE 17 28 9 15 1015.7 1015.7 0.0
23/11:30am 29.8 25.3 6.8 23 12.3 ESE 20 30 11 16 1016.2 - 0.0
23/11:00am 29.6 24.7 6.8 23 12.2 ENE 22 28 12 15 1016.6 - 0.0
23/10:30am 29.1 24.1 6.4 24 12.0 E 22 30 12 16 1016.9 - 0.0
23/10:00am 27.9 22.4 6.1 25 11.4 ESE 24 33 13 18 1016.9 - 0.0
23/09:30am 26.9 20.4 6.4 27 10.7 ESE 30 39 16 21 1016.8 - 0.0
23/09:00am 26.4 20.2 6.2 27 10.5 ESE 28 37 15 20 1016.7 1016.7 0.0
23/08:30am 25.3 20.4 6.9 31 9.6 ESE 22 33 12 18 1016.3 - 0.0
23/08:00am 24.0 20.0 8.4 37 8.3 SE 19 26 10 14 1016.1 - 0.0
23/07:30am 21.9 19.9 10.3 47 6.3 SSE 11 15 6 8 1016.1 - 0.0
23/07:00am 20.9 18.5 9.9 49 5.9 SE 13 17 7 9 1015.9 - 0.0
23/06:30am 20.2 17.5 10.2 52 5.4 ESE 15 19 8 10 1015.3 - 0.0
23/06:00am 20.6 17.9 10.2 51 5.6 SE 15 20 8 11 1015.1 1015.1 0.0
23/05:30am 20.5 17.5 10.6 53 5.4 SE 17 20 9 11 1015.0 - 0.0
23/05:00am 18.6 16.3 11.9 65 3.7 E 15 17 8 9 1014.8 - 0.0
23/04:30am 20.1 18.5 12.8 63 4.1 ESE 13 15 7 8 1014.8 - 0.0
23/04:00am 19.4 18.7 13.2 67 3.5 ESE 9 13 5 7 1014.8 - 0.0
23/03:30am 18.9 18.0 13.8 72 2.9 E 11 15 6 8 1014.5 - 0.0
23/03:00am 17.9 17.3 13.5 75 2.5 ESE 9 13 5 7 1014.8 1014.8 0.0
23/02:30am 19.4 21.0 14.8 75 2.7 CALM 0 0 0 0 1014.8 - 0.0
23/02:00am 19.4 20.9 14.6 74 2.8 CALM 0 0 0 0 1014.8 - 0.0
23/01:30am 20.5 20.7 14.7 69 3.4 S 7 9 4 5 1014.8 - 0.0
23/01:00am 21.0 20.6 15.3 70 3.4 SSW 11 11 6 6 1015.1 - 0.0
23/12:30am 21.1 20.9 15.6 71 3.3 SW 11 13 6 7 1015.2 - 0.0
23/12:00am 21.5 20.8 15.5 68 3.6 SSW 13 15 7 8 1015.2 1015.2 0.0
 
Date/Time
WST
Temp
°C
App
Temp
°C
Dew
Point
Rel
Hum
%
Delta-T
°C
Wind Press
QNH
hPa
Press
MSL
hPa
Rain
since 9 am
mm
Dir
 
Spd
km/h
Gust
km/h
Spd
kts
Gust
kts
22/11:30pm 21.8 21.2 15.6 68 3.7 SSW 13 15 7 8 1015.3 - 0.0
22/11:00pm 22.6 21.7 15.8 65 4.1 S 15 22 8 12 1015.5 - 0.0
22/10:30pm 22.2 22.0 16.6 70 3.4 SSW 13 15 7 8 1015.0 - 0.0
22/10:00pm 22.2 22.8 16.8 71 3.3 WSW 9 11 5 6 1014.9 - 0.0
22/09:30pm 22.7 23.8 17.2 71 3.4 W 7 9 4 5 1014.7 - 0.0
22/09:00pm 23.8 25.5 18.1 70 3.6 SSW 6 9 3 5 1014.7 1014.7 0.0
22/08:30pm 24.3 26.1 18.3 69 3.8 SSE 6 7 3 4 1014.6 - 0.0
22/08:00pm 24.5 26.4 18.5 69 3.8 SSW 6 7 3 4 1014.5 - 0.0
22/07:30pm 24.2 25.6 18.7 71 3.5 W 9 13 5 7 1014.0 - 0.0
22/07:00pm 24.4 25.3 18.4 69 3.8 WNW 11 13 6 7 1013.5 - 0.0
22/06:30pm 25.6 25.9 17.8 62 4.9 WNW 13 17 7 9 1013.0 - 0.0
22/06:00pm 25.9 25.1 17.2 58 5.4 WNW 17 22 9 12 1012.7 1012.7 0.0
22/05:30pm 26.7 25.4 16.9 55 6.1 WNW 19 24 10 13 1012.4 - 0.0
22/05:00pm 27.7 25.6 15.2 46 7.6 NW 20 24 11 13 1012.1 - 0.0
22/04:30pm 28.6 25.8 14.3 41 8.6 NNW 22 26 12 14 1012.1 - 0.0
22/04:00pm 29.4 25.8 13.2 37 9.6 NNW 24 30 13 16 1012.1 - 0.0
22/03:30pm 29.6 26.0 13.1 36 9.8 NNW 24 30 13 16 1012.0 - 0.0
22/03:00pm 30.4 26.9 12.2 32 10.7 NNW 22 26 12 14 1012.0 1012.0 0.0
22/02:30pm 31.0 28.0 12.6 32 10.9 NNW 20 26 11 14 1012.2 - 0.0
22/02:00pm 32.2 28.6 10.5 26 12.5 NNE 20 24 11 13 1012.4 - 0.0
22/01:30pm 31.9 30.0 7.7 22 13.3 SSW 7 17 4 9 1012.7 - 0.0

Other Formats:

Comma delimited format used in spreadsheet applications
http://www.bom.gov.au/fwo/IDW60801/IDW60801.94312.axf

JavaScript Object Notation format (JSON) in row-major order
http://www.bom.gov.au/fwo/IDW60801/IDW60801.94312.json